createdAt,value
2023-05-11T00:00:45.321Z,0.95
2023-05-11T00:03:13.473Z,1.30
2023-05-11T00:05:42.168Z,0.93
2023-05-11T00:08:10.239Z,1.38
2023-05-11T00:10:39.523Z,1.33
2023-05-11T00:13:07.472Z,1.10
2023-05-11T00:15:35.638Z,1.00
2023-05-11T00:18:03.604Z,0.90
2023-05-11T00:20:31.549Z,1.10
2023-05-11T00:22:59.498Z,1.23
2023-05-11T00:25:27.424Z,1.30
2023-05-11T00:27:56.650Z,1.08
2023-05-11T00:30:26.914Z,1.13
2023-05-11T00:32:54.944Z,1.30
2023-05-11T00:35:23.108Z,0.98
2023-05-11T00:37:51.286Z,0.88
2023-05-11T00:40:19.648Z,1.20
2023-05-11T00:42:48.041Z,1.05
2023-05-11T00:45:20.732Z,1.30
2023-05-11T00:47:48.702Z,1.05
2023-05-11T00:50:18.979Z,1.02
2023-05-11T00:52:47.294Z,1.10
2023-05-11T00:55:15.706Z,1.00
2023-05-11T00:57:44.132Z,1.00
2023-05-11T01:00:13.199Z,0.90
2023-05-11T01:02:42.837Z,1.00
2023-05-11T01:05:11.430Z,1.02
2023-05-11T01:07:47.214Z,1.05
2023-05-11T01:10:21.219Z,1.20
2023-05-11T01:12:55.930Z,1.20
2023-05-11T01:15:31.013Z,1.10
2023-05-11T01:18:12.747Z,1.05
2023-05-11T01:20:43.928Z,1.10
2023-05-11T01:23:25.404Z,0.98
2023-05-11T01:26:17.465Z,1.00
2023-05-11T01:29:11.436Z,0.98
2023-05-11T01:31:43.472Z,0.88
2023-05-11T01:34:16.521Z,1.10
2023-05-11T01:36:54.675Z,1.10
2023-05-11T01:39:28.448Z,0.77
2023-05-11T01:41:59.333Z,0.98
2023-05-11T01:44:33.229Z,0.93
2023-05-11T01:47:04.322Z,1.08
2023-05-11T01:49:38.635Z,1.20
2023-05-11T01:52:09.815Z,0.95
2023-05-11T01:54:39.348Z,1.08
2023-05-11T01:57:08.067Z,0.80
2023-05-11T01:59:38.082Z,0.80
2023-05-11T02:02:09.622Z,1.25
2023-05-11T02:04:41.172Z,1.00
2023-05-11T02:07:11.799Z,0.90
2023-05-11T02:09:41.529Z,0.90
2023-05-11T02:12:12.212Z,1.00
2023-05-11T02:14:42.336Z,0.80
2023-05-11T02:17:12.387Z,0.70
2023-05-11T02:19:43.056Z,0.80
2023-05-11T02:22:12.392Z,0.90
2023-05-11T02:24:41.139Z,0.82
2023-05-11T02:27:09.045Z,1.00
2023-05-11T02:29:37.123Z,0.98
2023-05-11T02:32:10.121Z,0.80
2023-05-11T02:37:13.914Z,0.80
2023-05-11T02:39:46.947Z,0.63
2023-05-11T02:42:19.391Z,0.73
2023-05-11T02:44:56.054Z,0.85
2023-05-11T02:47:27.337Z,0.80
2023-05-11T02:50:00.053Z,0.60
2023-05-11T02:55:00.735Z,0.70
2023-05-11T02:57:28.768Z,0.73
2023-05-11T03:00:00.324Z,0.80
2023-05-11T03:02:28.934Z,0.70
2023-05-11T03:04:58.252Z,0.50
2023-05-11T03:07:26.476Z,0.60
2023-05-11T03:09:54.591Z,0.70
2023-05-11T03:12:23.151Z,0.60
2023-05-11T03:14:52.559Z,0.52
2023-05-11T03:17:21.998Z,0.60
2023-05-11T03:19:51.912Z,0.70
2023-05-11T03:22:23.370Z,0.70
2023-05-11T03:24:52.735Z,0.50
2023-05-11T03:27:21.965Z,0.60
2023-05-11T03:29:51.056Z,0.70
2023-05-11T03:32:19.129Z,0.55
2023-05-11T03:34:47.228Z,0.40
2023-05-11T03:37:20.280Z,0.60
2023-05-11T03:39:56.223Z,0.52
2023-05-11T03:42:26.317Z,0.50
2023-05-11T03:44:59.587Z,0.50
2023-05-11T03:47:28.763Z,0.50
2023-05-11T03:49:57.769Z,0.40
2023-05-11T03:52:26.151Z,0.65
2023-05-11T03:54:55.463Z,0.60
2023-05-11T03:57:26.450Z,0.50
2023-05-11T03:59:54.424Z,0.60
2023-05-11T04:02:24.468Z,0.60
2023-05-11T04:04:53.291Z,0.50
2023-05-11T04:07:21.424Z,0.40
2023-05-11T04:09:49.304Z,0.60
2023-05-11T04:12:18.558Z,0.50
2023-05-11T04:14:46.449Z,0.40
2023-05-11T04:17:14.385Z,0.52
2023-05-11T04:19:42.427Z,0.47
2023-05-11T04:22:12.124Z,0.60
2023-05-11T04:24:40.154Z,0.60
2023-05-11T04:27:09.017Z,0.43
2023-05-11T04:29:39.521Z,0.35
2023-05-11T04:32:07.488Z,0.50
2023-05-11T04:34:35.634Z,0.60
2023-05-11T04:37:07.387Z,0.50
2023-05-11T04:39:36.594Z,0.50
2023-05-11T04:42:06.216Z,0.63
2023-05-11T04:44:34.377Z,0.70
2023-05-11T04:47:03.696Z,0.45
2023-05-11T04:49:31.683Z,0.43
2023-05-11T04:52:00.310Z,0.50
2023-05-11T04:54:28.461Z,0.38
2023-05-11T04:56:56.713Z,0.40
2023-05-11T04:59:24.926Z,0.50
2023-05-11T05:01:52.838Z,0.55
2023-05-11T05:04:22.063Z,0.50
2023-05-11T05:06:50.005Z,0.30
2023-05-11T05:09:18.622Z,0.40
2023-05-11T05:11:46.636Z,0.35
2023-05-11T05:14:14.851Z,0.47
2023-05-11T05:16:42.791Z,0.50
2023-05-11T05:19:11.053Z,0.43
2023-05-11T05:21:40.695Z,0.68
2023-05-11T05:24:11.228Z,0.47
2023-05-11T05:26:39.189Z,0.40
2023-05-11T05:29:07.679Z,0.65
2023-05-11T05:31:36.553Z,0.47
2023-05-11T05:34:04.638Z,0.50
2023-05-11T05:36:33.158Z,0.40
2023-05-11T05:39:06.113Z,0.50
2023-05-11T05:41:34.033Z,0.40
2023-05-11T05:44:03.394Z,0.47
2023-05-11T05:46:31.386Z,0.50
2023-05-11T05:48:59.515Z,0.50
2023-05-11T05:51:27.677Z,0.35
2023-05-11T05:53:55.574Z,0.40
2023-05-11T05:56:24.963Z,0.30
2023-05-11T05:58:52.906Z,0.40
2023-05-11T06:01:22.114Z,0.38
2023-05-11T06:03:52.596Z,0.40
2023-05-11T06:06:20.836Z,0.40
2023-05-11T06:08:48.758Z,0.38
2023-05-11T06:11:17.388Z,0.40
2023-05-11T06:13:47.046Z,0.43
2023-05-11T06:16:15.825Z,0.30
2023-05-11T06:18:43.885Z,0.40
2023-05-11T06:21:12.043Z,0.30
2023-05-11T06:23:40.004Z,0.50
2023-05-11T06:26:08.674Z,0.40
2023-05-11T06:28:37.160Z,0.35
2023-05-11T06:31:10.478Z,0.40
2023-05-11T06:33:40.692Z,0.40
2023-05-11T06:36:15.308Z,0.50
2023-05-11T06:38:43.262Z,0.20
2023-05-11T06:41:11.968Z,0.40
2023-05-11T06:43:40.208Z,0.43
2023-05-11T06:46:22.277Z,0.40
2023-05-11T06:48:50.725Z,0.30
2023-05-11T06:51:21.082Z,0.45
2023-05-11T06:53:49.142Z,0.38
2023-05-11T06:56:17.320Z,0.35
2023-05-11T06:58:45.354Z,0.40
2023-05-11T07:01:13.474Z,0.20
2023-05-11T07:03:42.963Z,0.57
2023-05-11T07:06:10.973Z,0.40
2023-05-11T07:08:39.037Z,0.60
2023-05-11T07:11:07.460Z,0.60
2023-05-11T07:13:35.352Z,0.40
2023-05-11T07:16:03.506Z,0.50
2023-05-11T07:18:31.662Z,0.50
2023-05-11T07:21:01.059Z,0.65
2023-05-11T07:23:29.207Z,0.43
2023-05-11T07:25:58.151Z,0.50
2023-05-11T07:28:26.116Z,0.40
2023-05-11T07:30:54.040Z,0.52
2023-05-11T07:33:22.022Z,0.40
2023-05-11T07:35:50.023Z,0.40
2023-05-11T07:38:19.222Z,0.30
2023-05-11T07:40:47.274Z,0.45
2023-05-11T07:43:15.165Z,0.47
2023-05-11T07:45:43.193Z,0.40
2023-05-11T07:48:11.475Z,0.40
2023-05-11T07:50:39.391Z,0.40
2023-05-11T07:53:07.485Z,0.30
2023-05-11T07:55:36.879Z,0.40
2023-05-11T07:58:05.208Z,0.50
2023-05-11T08:00:33.297Z,0.38
2023-05-11T08:03:01.979Z,0.40
2023-05-11T08:05:32.976Z,0.50
2023-05-11T08:08:02.009Z,0.50
2023-05-11T08:10:30.077Z,0.40
2023-05-11T08:12:59.405Z,0.40
2023-05-11T08:15:28.502Z,0.30
2023-05-11T08:17:56.779Z,0.40
2023-05-11T08:20:24.937Z,0.30
2023-05-11T08:22:52.977Z,0.40
2023-05-11T08:25:20.958Z,0.40
2023-05-11T08:27:49.241Z,0.40
2023-05-11T08:30:18.885Z,0.30
2023-05-11T08:32:58.118Z,0.35
2023-05-11T08:35:27.395Z,0.38
2023-05-11T08:37:55.346Z,0.30
2023-05-11T08:40:27.658Z,0.50
2023-05-11T08:42:57.346Z,0.40
2023-05-11T08:45:27.596Z,0.63
2023-05-11T08:47:56.226Z,0.60
2023-05-11T08:50:24.428Z,0.63
2023-05-11T08:52:52.409Z,0.30
2023-05-11T08:55:20.831Z,0.70
2023-05-11T08:57:49.121Z,0.25
2023-05-11T09:00:18.389Z,0.50
2023-05-11T09:02:48.408Z,0.50
2023-05-11T09:05:16.783Z,0.40
2023-05-11T09:07:48.103Z,0.30
2023-05-11T09:10:16.742Z,0.30
2023-05-11T09:12:44.599Z,0.47
2023-05-11T09:15:13.574Z,0.80
2023-05-11T09:17:41.806Z,0.35
2023-05-11T09:20:12.169Z,0.30
2023-05-11T09:22:44.100Z,0.20
2023-05-11T09:25:13.689Z,0.40
2023-05-11T09:27:46.646Z,0.20
2023-05-11T09:30:22.117Z,0.30
2023-05-11T09:32:52.835Z,0.40
2023-05-11T09:35:23.719Z,0.30
2023-05-11T09:38:02.671Z,0.30
2023-05-11T09:40:34.155Z,0.30
2023-05-11T09:43:04.174Z,0.30
2023-05-11T09:45:39.489Z,0.40
2023-05-11T09:48:08.883Z,0.20
2023-05-11T09:50:38.193Z,0.47
2023-05-11T09:53:06.228Z,0.30
2023-05-11T09:55:34.542Z,0.40
2023-05-11T09:58:02.699Z,0.22
2023-05-11T10:00:31.468Z,0.20
2023-05-11T10:03:03.989Z,0.30
2023-05-11T10:05:33.070Z,0.47
2023-05-11T10:08:06.846Z,0.40
2023-05-11T10:10:36.491Z,0.50
2023-05-11T10:13:05.132Z,0.40
2023-05-11T10:15:37.620Z,0.50
2023-05-11T10:18:07.854Z,0.50
2023-05-11T10:20:36.638Z,0.20
2023-05-11T10:23:06.888Z,0.30
2023-05-11T10:25:35.657Z,0.22
2023-05-11T10:28:04.274Z,0.47
2023-05-11T10:30:34.335Z,0.32
2023-05-11T10:33:02.816Z,0.30
2023-05-11T10:35:31.617Z,0.28
2023-05-11T10:37:59.819Z,0.40
2023-05-11T10:40:29.724Z,0.17
2023-05-11T10:43:27.095Z,0.60
2023-05-11T10:46:08.999Z,0.30
2023-05-11T10:49:05.276Z,0.25
2023-05-11T10:51:55.903Z,0.40
2023-05-11T10:54:38.635Z,0.30
2023-05-11T10:57:14.921Z,0.38
2023-05-11T11:00:14.260Z,0.30
2023-05-11T11:02:46.304Z,0.50
2023-05-11T11:05:18.295Z,0.70
2023-05-11T11:08:00.388Z,0.30
2023-05-11T11:10:33.413Z,0.20
2023-05-11T11:13:08.007Z,0.40
2023-05-11T11:16:10.273Z,0.30
2023-05-11T11:18:38.479Z,0.38
2023-05-11T11:21:07.081Z,0.30
2023-05-11T11:23:50.631Z,0.60
2023-05-11T11:29:13.893Z,0.40
2023-05-11T11:34:37.382Z,0.40
2023-05-11T11:37:06.419Z,0.20
2023-05-11T11:39:50.885Z,0.32
2023-05-11T11:42:20.667Z,0.40
2023-05-11T11:44:50.181Z,0.45
2023-05-11T11:47:19.779Z,0.38
2023-05-11T11:49:49.122Z,0.40
2023-05-11T11:52:35.166Z,0.30
2023-05-11T11:55:05.249Z,0.60
2023-05-11T11:57:51.217Z,0.40
2023-05-11T12:00:23.739Z,0.30
2023-05-11T12:02:51.871Z,0.40
2023-05-11T12:05:22.459Z,0.30
2023-05-11T12:07:52.452Z,0.30
2023-05-11T12:10:22.001Z,0.40
2023-05-11T12:12:51.253Z,0.30
2023-05-11T12:15:28.323Z,0.30
2023-05-11T12:17:57.053Z,0.40
2023-05-11T12:20:26.266Z,0.30
2023-05-11T12:22:54.266Z,0.30
2023-05-11T12:25:23.442Z,0.40
2023-05-11T12:27:55.075Z,0.30
2023-05-11T12:30:24.694Z,0.43
2023-05-11T12:32:57.726Z,0.35
2023-05-11T12:35:27.291Z,0.40
2023-05-11T12:37:56.041Z,0.57
2023-05-11T12:40:24.508Z,0.47
2023-05-11T12:42:53.047Z,0.30
2023-05-11T12:45:22.653Z,0.47
2023-05-11T12:47:53.651Z,0.40
2023-05-11T12:50:22.458Z,0.50
2023-05-11T12:52:50.908Z,0.80
2023-05-11T12:55:28.396Z,0.40
2023-05-11T12:58:08.584Z,1.40
2023-05-11T13:00:36.790Z,0.57
2023-05-11T13:03:06.176Z,0.75
2023-05-11T13:05:34.336Z,0.80
2023-05-11T13:08:03.792Z,0.40
2023-05-11T13:10:32.553Z,0.40
2023-05-11T13:13:00.498Z,0.28
2023-05-11T13:15:29.407Z,0.30
2023-05-11T13:17:58.998Z,0.30
2023-05-11T13:20:30.068Z,0.20
2023-05-11T13:23:06.066Z,0.30
2023-05-11T13:25:35.228Z,0.55
2023-05-11T13:28:03.893Z,1.27
2023-05-11T13:30:34.224Z,0.50
2023-05-11T13:33:03.098Z,0.52
2023-05-11T13:35:32.715Z,0.40
2023-05-11T13:38:00.582Z,0.50
2023-05-11T13:40:28.666Z,0.40
2023-05-11T13:42:56.773Z,0.60
2023-05-11T13:45:24.811Z,0.30
2023-05-11T13:47:52.805Z,0.50
2023-05-11T13:50:21.005Z,0.32
2023-05-11T13:52:50.206Z,1.17
2023-05-11T13:55:18.422Z,0.45
2023-05-11T13:57:46.612Z,0.50
2023-05-11T14:00:16.020Z,0.82
2023-05-11T14:02:45.261Z,1.00
2023-05-11T14:05:13.246Z,1.52
2023-05-11T14:07:47.814Z,1.60
2023-05-11T14:10:18.591Z,2.50
2023-05-11T14:12:46.972Z,2.20
2023-05-11T14:15:14.908Z,1.02
2023-05-11T14:17:43.348Z,0.85
2023-05-11T14:20:13.056Z,0.40
2023-05-11T14:22:41.543Z,0.47
2023-05-11T14:25:10.260Z,0.32
2023-05-11T14:27:39.784Z,0.50
2023-05-11T14:30:09.101Z,0.50
2023-05-11T14:32:37.177Z,0.52
2023-05-11T14:35:05.820Z,0.43
2023-05-11T14:37:34.057Z,0.30
2023-05-11T14:40:01.994Z,0.70
2023-05-11T14:42:30.381Z,0.60
2023-05-11T14:44:59.766Z,0.57
2023-05-11T14:47:27.771Z,0.40
2023-05-11T14:49:57.969Z,0.63
2023-05-11T14:52:25.887Z,0.32
2023-05-11T14:54:53.809Z,0.60
2023-05-11T14:57:21.731Z,1.20
2023-05-11T14:59:58.948Z,0.70
2023-05-11T15:02:29.632Z,0.65
2023-05-11T15:04:57.852Z,0.90
2023-05-11T15:07:26.754Z,0.93
2023-05-11T15:09:54.938Z,0.90
2023-05-11T15:12:23.111Z,1.20
2023-05-11T15:14:51.125Z,1.17
2023-05-11T15:17:19.498Z,1.13
2023-05-11T15:19:48.760Z,0.75
2023-05-11T15:22:17.631Z,0.70
2023-05-11T15:24:45.624Z,1.05
2023-05-11T15:27:13.672Z,1.00
2023-05-11T15:29:41.920Z,1.15
2023-05-11T15:32:13.387Z,1.08
2023-05-11T15:34:58.044Z,0.80
2023-05-11T15:37:29.183Z,1.90
2023-05-11T15:39:57.138Z,1.40
2023-05-11T15:42:25.178Z,1.00
2023-05-11T15:44:53.256Z,1.10
2023-05-11T15:47:21.420Z,0.80
2023-05-11T15:49:49.458Z,0.73
2023-05-11T15:52:17.558Z,0.70
2023-05-11T15:54:46.929Z,0.60
2023-05-11T15:57:14.879Z,0.80
2023-05-11T15:59:42.808Z,0.85
2023-05-11T16:02:10.921Z,0.90
2023-05-11T16:04:38.864Z,0.90
2023-05-11T16:07:07.085Z,0.85
2023-05-11T16:09:35.069Z,1.17
2023-05-11T16:12:04.638Z,0.75
2023-05-11T16:14:32.566Z,1.08
2023-05-11T16:17:01.510Z,0.93
2023-05-11T16:19:29.985Z,1.30
2023-05-11T16:21:58.159Z,2.22
2023-05-11T16:24:26.130Z,6.40
2023-05-11T16:26:54.049Z,4.90
2023-05-11T16:29:23.669Z,2.78
2023-05-11T16:31:51.665Z,0.80
2023-05-11T16:34:19.716Z,0.88
2023-05-11T16:36:47.673Z,1.98
2023-05-11T16:39:15.523Z,0.80
2023-05-11T16:41:43.396Z,0.80
2023-05-11T16:44:11.307Z,0.70
2023-05-11T16:46:40.651Z,0.50
2023-05-11T16:49:08.621Z,0.63
2023-05-11T16:51:36.650Z,0.90
2023-05-11T16:54:04.635Z,0.63
2023-05-11T16:56:32.600Z,0.40
2023-05-11T16:59:00.489Z,1.10
2023-05-11T17:01:28.587Z,1.50
2023-05-11T17:03:57.919Z,0.80
2023-05-11T17:06:27.442Z,0.90
2023-05-11T17:08:55.511Z,0.70
2023-05-11T17:11:23.815Z,0.60
2023-05-11T17:13:52.470Z,0.82
2023-05-11T17:16:20.595Z,0.90
2023-05-11T17:18:48.628Z,1.10
2023-05-11T17:21:18.358Z,1.27
2023-05-11T17:23:46.392Z,1.40
2023-05-11T17:26:14.473Z,1.30
2023-05-11T17:28:42.531Z,0.90
2023-05-11T17:31:11.652Z,0.85
2023-05-11T17:33:41.057Z,0.65
2023-05-11T17:36:10.246Z,1.00
2023-05-11T17:38:39.572Z,1.98
2023-05-11T17:41:07.610Z,1.45
2023-05-11T17:43:36.437Z,1.40
2023-05-11T17:46:04.510Z,1.00
2023-05-11T17:48:32.565Z,1.15
2023-05-11T17:51:00.654Z,0.55
2023-05-11T17:53:28.569Z,0.60
2023-05-11T17:56:00.765Z,0.50
2023-05-11T17:58:28.700Z,0.60
2023-05-11T18:00:56.624Z,0.70
2023-05-11T18:03:24.704Z,0.80
2023-05-11T18:05:53.053Z,0.70
2023-05-11T18:08:20.943Z,0.82
2023-05-11T18:10:48.861Z,0.88
2023-05-11T18:13:18.169Z,0.80
2023-05-11T18:15:46.260Z,0.90
2023-05-11T18:18:15.596Z,1.05
2023-05-11T18:20:45.721Z,0.80
2023-05-11T18:23:16.024Z,0.90
2023-05-11T18:25:44.141Z,0.70
2023-05-11T18:28:12.281Z,1.48
2023-05-11T18:30:41.785Z,1.30
2023-05-11T18:33:09.767Z,1.60
2023-05-11T18:35:38.965Z,1.52
2023-05-11T18:38:07.486Z,1.67
2023-05-11T18:40:36.028Z,1.50
2023-05-11T18:43:04.035Z,1.70
2023-05-11T18:45:33.060Z,1.67
2023-05-11T18:48:02.697Z,1.55
2023-05-11T18:50:30.983Z,1.70
2023-05-11T18:52:59.697Z,1.48
2023-05-11T18:55:53.696Z,1.23
2023-05-11T18:58:40.749Z,1.75
2023-05-11T19:01:09.215Z,1.33
2023-05-11T19:03:38.603Z,1.55
2023-05-11T19:06:07.573Z,1.88
2023-05-11T19:08:35.519Z,1.33
2023-05-11T19:11:07.947Z,1.17
2023-05-11T19:13:36.038Z,1.20
2023-05-11T19:16:05.202Z,1.17
2023-05-11T19:18:35.451Z,1.60
2023-05-11T19:21:05.731Z,1.52
2023-05-11T19:23:33.925Z,1.88
2023-05-11T19:26:02.053Z,1.70
2023-05-11T19:28:29.972Z,2.10
2023-05-11T19:31:02.373Z,1.77
2023-05-11T19:33:31.540Z,2.22
2023-05-11T19:35:59.756Z,2.28
2023-05-11T19:38:29.066Z,2.22
2023-05-11T19:40:57.163Z,2.67
2023-05-11T19:43:25.045Z,2.80
2023-05-11T19:45:52.980Z,2.40
2023-05-11T19:48:21.410Z,2.55
2023-05-11T19:50:49.311Z,2.30
2023-05-11T19:53:17.239Z,2.30
2023-05-11T19:55:48.024Z,2.05
2023-05-11T19:58:16.180Z,2.90
2023-05-11T20:00:44.145Z,2.63
2023-05-11T20:03:12.130Z,2.50
2023-05-11T20:05:40.097Z,2.75
2023-05-11T20:08:08.159Z,2.85
2023-05-11T20:10:36.473Z,2.72
2023-05-11T20:13:07.941Z,2.70
2023-05-11T20:15:35.950Z,2.80
2023-05-11T20:18:04.370Z,2.70
2023-05-11T20:20:32.707Z,2.90
2023-05-11T20:23:01.134Z,2.70
2023-05-11T20:25:29.103Z,2.78
2023-05-11T20:27:57.012Z,2.53
2023-05-11T20:30:26.339Z,2.85
2023-05-11T20:35:25.262Z,3.33
2023-05-11T20:37:53.457Z,3.00
2023-05-11T20:40:21.681Z,2.90
2023-05-11T20:42:49.756Z,2.95
2023-05-11T20:45:17.983Z,3.17
2023-05-11T20:47:47.241Z,3.20
2023-05-11T20:50:15.802Z,3.25
2023-05-11T20:52:43.867Z,2.95
2023-05-11T20:55:12.005Z,3.00
2023-05-11T20:57:39.981Z,2.47
2023-05-11T21:00:10.963Z,2.95
2023-05-11T21:02:39.044Z,3.45
2023-05-11T21:05:08.999Z,3.40
2023-05-11T21:07:37.029Z,3.33
2023-05-11T21:10:05.933Z,3.30
2023-05-11T21:12:33.837Z,3.72
2023-05-11T21:15:01.928Z,3.13
2023-05-11T21:17:29.877Z,3.05
2023-05-11T21:19:57.746Z,3.13
2023-05-11T21:22:27.136Z,3.28
2023-05-11T21:24:55.077Z,3.10
2023-05-11T21:27:22.948Z,3.00
2023-05-11T21:29:50.988Z,2.70
2023-05-11T21:32:18.994Z,2.80
2023-05-11T21:34:46.930Z,2.90
2023-05-11T21:37:15.880Z,2.72
2023-05-11T21:39:45.221Z,2.60
2023-05-11T21:42:13.105Z,2.88
2023-05-11T21:44:41.018Z,3.03
2023-05-11T21:47:08.994Z,2.45
2023-05-11T21:49:37.029Z,2.00
2023-05-11T21:52:05.939Z,2.30
2023-05-11T21:54:33.925Z,2.47
2023-05-11T21:57:03.653Z,2.97
2023-05-11T21:59:31.611Z,2.10
2023-05-11T22:01:59.572Z,2.40
2023-05-11T22:04:27.537Z,2.35
2023-05-11T22:06:59.582Z,1.90
2023-05-11T22:11:57.384Z,1.73
2023-05-11T22:14:26.640Z,1.60
2023-05-11T22:16:54.574Z,1.40
2023-05-11T22:19:22.508Z,1.65
2023-05-11T22:21:50.526Z,1.83
2023-05-11T22:24:18.454Z,1.77
2023-05-11T22:26:46.601Z,1.52
2023-05-11T22:29:14.991Z,1.63
2023-05-11T22:31:46.133Z,1.80
2023-05-11T22:34:14.426Z,1.33
2023-05-11T22:36:42.447Z,1.58
2023-05-11T22:39:11.393Z,1.45
2023-05-11T22:41:39.435Z,1.50
2023-05-11T22:44:07.467Z,1.33
2023-05-11T22:46:35.359Z,1.35
2023-05-11T22:49:04.639Z,1.52
2023-05-11T22:51:32.477Z,1.90
2023-05-11T22:54:00.415Z,1.67
2023-05-11T22:56:28.524Z,1.63
2023-05-11T22:58:59.730Z,2.33
2023-05-11T23:01:27.903Z,2.25
2023-05-11T23:03:56.080Z,2.30
2023-05-11T23:06:25.490Z,2.15
2023-05-11T23:08:53.668Z,2.13
2023-05-11T23:11:21.624Z,2.38
2023-05-11T23:13:49.505Z,2.17
2023-05-11T23:16:17.717Z,2.10
2023-05-11T23:18:45.948Z,2.05
2023-05-11T23:21:13.925Z,2.00
2023-05-11T23:23:43.421Z,2.90
2023-05-11T23:26:12.414Z,3.22
2023-05-11T23:28:40.481Z,3.67
2023-05-11T23:31:08.412Z,3.35
2023-05-11T23:33:36.607Z,3.55
2023-05-11T23:36:04.750Z,3.53
2023-05-11T23:38:32.649Z,3.67
2023-05-11T23:41:02.086Z,3.72
2023-05-11T23:43:30.758Z,3.88
2023-05-11T23:45:58.633Z,3.95
2023-05-11T23:48:26.517Z,3.78
2023-05-11T23:50:54.398Z,3.88
2023-05-11T23:53:22.266Z,3.90
2023-05-11T23:55:50.248Z,3.65
2023-05-11T23:58:19.469Z,3.63
